Time;durP1;ratioP1;P1;durP2;ratioP2;P2;SDS_P1;SDS_P2;PMS_P1;PMS_P2;Temp;Humidity;BMP_temperature;BMP_pressure;BME280_temperature;BME280_humidity;BME280_pressure;Samples;Min_cycle;Max_cycle;Signal;HPM_P1;HPM_P2
2021/12/13 00:02:00;;;;;;;4.97;4.30;;;5.00;99.90;;;;;;5079041;28;20291;-79
2021/12/13 00:04:32;;;;;;;6.28;4.63;;;4.70;99.90;;;;;;5077974;28;20746;-79
2021/12/13 00:07:03;;;;;;;5.88;4.55;;;5.00;99.90;;;;;;5080795;28;20340;-79
2021/12/13 00:09:41;;;;;;;7.82;4.32;;;4.80;99.90;;;;;;5073625;28;20214;-79
2021/12/13 00:12:09;;;;;;;5.22;4.10;;;5.00;99.90;;;;;;5080070;28;20301;-79
2021/12/13 00:14:39;;;;;;;4.57;4.10;;;4.90;99.90;;;;;;5082006;28;20252;-79
2021/12/13 00:17:12;;;;;;;4.43;3.58;;;5.10;99.90;;;;;;5075018;28;20210;-78
2021/12/13 00:19:42;;;;;;;4.85;3.88;;;5.00;99.90;;;;;;5082429;28;20281;-78
2021/12/13 00:22:14;;;;;;;7.60;5.20;;;5.00;99.90;;;;;;5078156;28;20238;-78
2021/12/13 00:24:44;;;;;;;4.10;3.70;;;5.00;99.90;;;;;;5077613;28;20577;-79
2021/12/13 00:27:14;;;;;;;4.78;4.28;;;5.00;99.90;;;;;;5077872;28;20319;-80
2021/12/13 00:29:47;;;;;;;5.97;4.47;;;5.00;99.90;;;;;;5079989;28;20285;-80
2021/12/13 00:32:18;;;;;;;5.00;3.80;;;5.00;99.90;;;;;;5078821;28;20628;-79
2021/12/13 00:34:50;;;;;;;6.65;3.72;;;5.20;99.90;;;;;;5078279;28;20267;-79
2021/12/13 00:37:23;;;;;;;3.78;3.47;;;5.00;99.90;;;;;;5069266;28;20259;-79
2021/12/13 00:39:54;;;;;;;5.47;4.00;;;4.80;99.90;;;;;;5076964;28;20474;-79
2021/12/13 00:42:24;;;;;;;5.55;4.70;;;5.00;99.90;;;;;;5076655;28;20254;-80
2021/12/13 00:44:54;;;;;;;3.95;3.58;;;5.10;99.90;;;;;;5082019;28;20628;-80
2021/12/13 00:47:25;;;;;;;4.90;4.10;;;5.10;99.90;;;;;;5075069;28;20263;-79
2021/12/13 00:49:56;;;;;;;4.65;4.25;;;5.20;99.90;;;;;;5077366;28;20261;-78
2021/12/13 00:52:24;;;;;;;4.30;3.90;;;;;;;;;;5080541;28;20207;-79
2021/12/13 00:54:53;;;;;;;8.23;4.30;;;5.10;99.90;;;;;;5078779;28;20231;-80
2021/12/13 00:57:45;;;;;;;6.65;3.88;;;5.00;99.90;;;;;;5083076;28;20347;-80
2021/12/13 01:00:25;;;;;;;6.20;3.85;;;5.00;99.90;;;;;;5078926;28;20226;-79
2021/12/13 01:02:58;;;;;;;4.40;4.00;;;5.00;99.90;;;;;;5081623;28;20286;-80
2021/12/13 01:05:43;;;;;;;4.78;3.90;;;4.90;99.90;;;;;;5080217;28;20214;-79
2021/12/13 01:08:21;;;;;;;7.20;4.55;;;5.10;99.90;;;;;;5075205;28;20310;-79
2021/12/13 01:11:07;;;;;;;5.70;4.47;;;5.00;99.90;;;;;;5084916;28;20206;-79
2021/12/13 01:13:41;;;;;;;6.13;4.15;;;5.00;99.90;;;;;;5078537;28;20260;-80
2021/12/13 01:16:19;;;;;;;4.15;3.53;;;5.00;99.90;;;;;;5076571;28;20543;-80
2021/12/13 01:19:03;;;;;;;7.25;4.30;;;5.00;99.90;;;;;;5083215;28;20203;-80
2021/12/13 01:21:43;;;;;;;5.88;4.43;;;4.90;99.90;;;;;;5078201;28;20198;-79
2021/12/13 01:24:16;;;;;;;5.93;4.70;;;5.00;99.90;;;;;;5081206;28;20202;-80
2021/12/13 01:26:46;;;;;;;5.78;4.18;;;4.90;99.90;;;;;;5077245;28;20196;-80
2021/12/13 01:29:16;;;;;;;5.97;4.20;;;5.00;99.90;;;;;;5083379;28;20223;-79
2021/12/13 01:31:46;;;;;;;5.82;5.22;;;4.90;99.90;;;;;;5070681;28;20852;-79
2021/12/13 01:34:15;;;;;;;7.93;5.13;;;4.60;99.90;;;;;;5084996;28;20672;-80
2021/12/13 01:36:50;;;;;;;6.82;5.30;;;5.00;99.90;;;;;;5082205;28;20223;-80
2021/12/13 01:39:20;;;;;;;5.97;4.57;;;5.00;99.90;;;;;;5085311;28;20207;-80
2021/12/13 01:41:50;;;;;;;6.95;5.25;;;5.00;99.90;;;;;;5080842;28;20231;-80
2021/12/13 01:44:21;;;;;;;4.53;4.07;;;4.80;99.90;;;;;;5079762;28;20290;-79
2021/12/13 01:46:53;;;;;;;6.93;5.15;;;5.00;99.90;;;;;;5080604;28;20285;-80
2021/12/13 01:49:20;;;;;;;5.78;5.25;;;;;;;;;;5083766;28;20209;-80
2021/12/13 01:51:49;;;;;;;10.48;4.95;;;5.00;99.90;;;;;;5078994;28;20242;-80
2021/12/13 01:54:19;;;;;;;8.40;6.70;;;6.00;99.90;;;;;;5079681;28;20218;-80
2021/12/13 01:56:56;;;;;;;5.68;4.72;;;5.00;99.90;;;;;;5078684;28;20295;-79
2021/12/13 01:59:44;;;;;;;6.15;5.55;;;5.00;99.90;;;;;;5084593;28;20190;-80
2021/12/13 02:02:18;;;;;;;6.60;5.32;;;5.00;99.90;;;;;;5074041;28;20688;-80
2021/12/13 02:04:54;;;;;;;5.20;4.53;;;5.00;99.90;;;;;;5081125;28;20273;-80
2021/12/13 02:07:24;;;;;;;8.23;5.70;;;;;;;;;;5078589;28;20321;-80
2021/12/13 02:09:52;;;;;;;4.75;4.20;;;4.90;99.90;;;;;;5078303;28;20198;-80
2021/12/13 02:12:21;;;;;;;6.65;5.13;;;5.00;99.90;;;;;;5074561;28;20207;-79
2021/12/13 02:16:56;;;;;;;7.35;4.63;;;5.00;99.90;;;;;;5080795;28;20200;-80
2021/12/13 02:17:42;;;;;;;13.35;5.25;;;5.10;99.90;;;;;;5084772;28;20211;-80
2021/12/13 02:20:14;;;;;;;7.25;4.93;;;5.10;99.90;;;;;;5080731;28;20207;-80
2021/12/13 02:22:45;;;;;;;8.18;5.30;;;5.20;99.90;;;;;;5080736;28;20841;-80
2021/12/13 02:25:25;;;;;;;7.63;4.75;;;5.30;99.90;;;;;;5076937;28;20222;-80
2021/12/13 02:27:59;;;;;;;8.30;5.20;;;5.40;99.90;;;;;;5070711;28;20322;-80
2021/12/13 02:30:34;;;;;;;6.18;4.82;;;5.10;99.90;;;;;;5084187;28;20690;-80
2021/12/13 02:33:04;;;;;;;5.85;4.80;;;5.10;99.90;;;;;;5077616;28;20199;-80
2021/12/13 02:35:36;;;;;;;7.20;5.53;;;5.10;99.90;;;;;;5082838;28;20196;-80
2021/12/13 02:38:07;;;;;;;8.05;5.30;;;5.10;99.90;;;;;;5079009;28;20195;-80
2021/12/13 02:40:34;;;;;;;6.15;5.43;;;;;;;;;;5084839;28;20271;-80
2021/12/13 02:43:01;;;;;;;8.50;5.47;;;5.00;99.90;;;;;;5077999;28;20254;-79
2021/12/13 02:45:32;;;;;;;6.18;5.35;;;5.10;99.90;;;;;;5084644;28;20725;-78
2021/12/13 02:48:13;;;;;;;9.10;5.57;;;5.00;99.90;;;;;;5077247;28;20235;-80
2021/12/13 02:50:45;;;;;;;8.63;6.10;;;5.10;99.90;;;;;;5082997;28;20207;-79
2021/12/13 02:53:18;;;;;;;8.13;5.72;;;5.10;99.90;;;;;;5077844;28;20231;-80
2021/12/13 02:55:46;;;;;;;9.20;6.65;;;;;;;;;;5072093;28;20574;-79
2021/12/13 02:58:16;;;;;;;8.50;5.63;;;5.10;99.90;;;;;;5075663;28;20673;-79
2021/12/13 03:00:48;;;;;;;9.43;6.60;;;5.20;99.90;;;;;;5081142;28;20234;-80
2021/12/13 03:03:18;;;;;;;6.90;5.20;;;5.10;99.90;;;;;;5079569;28;20264;-80
2021/12/13 03:05:51;;;;;;;9.60;6.57;;;5.30;99.90;;;;;;5080245;28;20609;-79
2021/12/13 03:08:23;;;;;;;9.00;6.03;;;5.10;99.90;;;;;;5076714;28;20239;-80
2021/12/13 03:10:54;;;;;;;8.00;6.22;;;5.10;99.90;;;;;;5084169;28;20723;-80
2021/12/13 03:13:21;;;;;;;6.35;5.40;;;5.10;99.90;;;;;;5076852;28;20549;-79
2021/12/13 03:15:52;;;;;;;13.50;5.63;;;5.10;99.90;;;;;;5078804;28;20246;-80
2021/12/13 03:18:22;;;;;;;7.85;6.75;;;4.70;99.90;;;;;;5077384;28;20269;-79
2021/12/13 03:21:12;;;;;;;8.13;6.10;;;5.20;99.90;;;;;;5077067;28;20297;-80
2021/12/13 03:24:01;;;;;;;6.80;6.10;;;5.00;99.90;;;;;;5074348;28;20234;-80
2021/12/13 03:27:06;;;;;;;8.27;6.30;;;5.10;99.90;;;;;;5080291;28;20727;-80
2021/12/13 03:29:52;;;;;;;8.65;7.25;;;5.10;99.90;;;;;;5075792;28;20226;-79
2021/12/13 03:32:21;;;;;;;6.53;5.82;;;5.10;99.90;;;;;;5078453;28;20288;-79
2021/12/13 03:34:59;;;;;;;7.13;5.68;;;5.70;99.90;;;;;;5081415;28;20634;-80
2021/12/13 03:37:26;;;;;;;9.00;6.05;;;5.60;99.90;;;;;;5081859;28;20289;-79
2021/12/13 03:39:59;;;;;;;10.70;6.53;;;5.10;99.90;;;;;;5078521;28;20207;-80
2021/12/13 03:42:28;;;;;;;6.90;6.07;;;5.00;99.90;;;;;;5079441;28;20600;-80
2021/12/13 03:45:00;;;;;;;9.90;6.70;;;5.10;99.90;;;;;;5076679;28;20235;-80
2021/12/13 03:47:33;;;;;;;7.07;6.30;;;5.10;99.90;;;;;;5075827;28;20242;-80
2021/12/13 03:50:02;;;;;;;6.75;5.97;;;5.10;99.90;;;;;;5080187;28;20287;-79
2021/12/13 03:52:32;;;;;;;9.75;6.65;;;5.10;99.90;;;;;;5075125;28;20297;-80
2021/12/13 03:55:02;;;;;;;6.85;6.05;;;5.10;99.90;;;;;;5082638;28;20199;-79
2021/12/13 03:57:30;;;;;;;10.93;7.20;;;5.10;99.90;;;;;;5076475;28;20238;-79
2021/12/13 03:59:59;;;;;;;8.23;7.35;;;5.10;99.90;;;;;;5081202;28;20199;-80
2021/12/13 04:02:31;;;;;;;10.55;7.35;;;5.20;99.90;;;;;;5079425;28;20209;-80
2021/12/13 04:05:03;;;;;;;7.90;7.00;;;4.90;99.90;;;;;;5080232;28;20255;-80
2021/12/13 04:07:33;;;;;;;10.82;6.57;;;5.20;99.90;;;;;;5079473;28;20284;-80
2021/12/13 04:10:13;;;;;;;8.15;6.32;;;5.10;99.90;;;;;;5081327;28;20286;-79
2021/12/13 04:12:46;;;;;;;8.55;6.03;;;5.00;99.90;;;;;;5077972;28;20665;-80
2021/12/13 04:15:17;;;;;;;10.98;6.35;;;4.30;99.90;;;;;;5076494;28;20203;-80
2021/12/13 04:17:58;;;;;;;7.28;6.43;;;5.10;99.90;;;;;;5070462;28;20241;-80
2021/12/13 04:20:28;;;;;;;7.22;6.45;;;4.90;99.90;;;;;;5077833;28;20207;-79
2021/12/13 04:22:57;;;;;;;8.23;7.25;;;4.90;99.90;;;;;;5079780;28;20222;-79
2021/12/13 04:25:30;;;;;;;12.38;6.97;;;5.10;99.90;;;;;;5077520;28;20747;-79
2021/12/13 04:28:03;;;;;;;11.15;7.57;;;5.10;99.90;;;;;;5078387;28;20223;-79
2021/12/13 04:30:34;;;;;;;7.47;6.78;;;5.20;99.90;;;;;;5082442;28;20203;-80
2021/12/13 04:33:07;;;;;;;6.97;6.15;;;5.10;99.90;;;;;;5083056;28;20604;-79
2021/12/13 04:35:35;;;;;;;9.27;7.22;;;5.10;99.90;;;;;;5083490;28;20605;-79
2021/12/13 04:38:07;;;;;;;8.93;7.30;;;5.20;99.90;;;;;;5081326;28;20207;-79
2021/12/13 04:40:39;;;;;;;8.20;6.88;;;5.10;99.90;;;;;;5084904;28;20242;-79
2021/12/13 04:43:08;;;;;;;7.95;6.75;;;5.10;99.90;;;;;;5080681;28;20238;-79
2021/12/13 04:45:36;;;;;;;7.47;6.00;;;5.10;99.90;;;;;;5084318;28;20673;-80
2021/12/13 04:48:07;;;;;;;7.45;6.43;;;5.20;99.90;;;;;;5082996;28;20314;-80
2021/12/13 04:50:38;;;;;;;9.68;7.03;;;5.10;99.90;;;;;;5083536;28;20252;-80
2021/12/13 04:53:05;;;;;;;12.85;5.88;;;;;;;;;;5080493;28;20234;-79
2021/12/13 04:55:36;;;;;;;10.70;6.95;;;5.10;99.90;;;;;;5084129;28;20320;-80
2021/12/13 04:58:09;;;;;;;9.93;6.80;;;5.20;99.90;;;;;;5080410;28;20290;-80
2021/12/13 05:00:40;;;;;;;7.38;6.22;;;5.10;99.90;;;;;;5083666;28;20225;-79
2021/12/13 05:03:09;;;;;;;11.23;6.57;;;4.30;99.90;;;;;;5080068;28;20257;-80
2021/12/13 05:05:37;;;;;;;8.60;6.70;;;5.10;99.90;;;;;;5085884;28;20282;-80
2021/12/13 05:08:08;;;;;;;9.43;6.53;;;5.20;99.90;;;;;;5082621;28;20313;-79
2021/12/13 05:10:37;;;;;;;7.00;6.00;;;5.20;99.90;;;;;;5082176;28;20575;-79
2021/12/13 05:13:09;;;;;;;8.32;6.30;;;5.20;99.90;;;;;;5074275;28;20227;-80
2021/12/13 05:15:37;;;;;;;6.85;6.20;;;5.20;99.90;;;;;;5079690;28;20203;-79
2021/12/13 05:18:10;;;;;;;9.65;6.22;;;5.20;99.90;;;;;;5079149;28;20242;-79
2021/12/13 05:20:40;;;;;;;7.40;6.63;;;5.20;99.90;;;;;;5082404;28;20294;-80
2021/12/13 05:23:12;;;;;;;26.40;7.30;;;5.20;99.90;;;;;;5082249;28;20218;-80
2021/12/13 05:25:43;;;;;;;8.13;6.00;;;5.20;99.90;;;;;;5081014;28;20211;-80
2021/12/13 05:28:13;;;;;;;8.63;6.35;;;5.20;99.90;;;;;;5082647;28;20333;-80
2021/12/13 05:30:46;;;;;;;8.52;7.30;;;5.10;99.90;;;;;;5082909;28;20231;-79
2021/12/13 05:33:16;;;;;;;11.18;7.25;;;5.20;99.90;;;;;;5081523;28;20199;-80
2021/12/13 05:35:46;;;;;;;10.45;6.45;;;5.20;99.90;;;;;;5081643;28;20724;-80
2021/12/13 05:38:30;;;;;;;8.75;7.03;;;5.30;99.90;;;;;;5083216;28;20293;-80
2021/12/13 05:41:01;;;;;;;10.75;6.57;;;5.20;99.90;;;;;;5080163;28;20261;-81
2021/12/13 05:43:31;;;;;;;11.10;7.75;;;5.30;99.90;;;;;;5082604;28;20230;-81
2021/12/13 05:46:02;;;;;;;7.78;6.82;;;5.20;99.90;;;;;;5080669;28;20282;-82
2021/12/13 05:48:48;;;;;;;8.20;6.75;;;5.30;99.90;;;;;;5073909;28;20236;-82
2021/12/13 05:51:26;;;;;;;10.63;6.22;;;5.30;99.90;;;;;;5082474;28;20231;-82
2021/12/13 05:53:57;;;;;;;7.90;6.70;;;5.60;99.90;;;;;;5077027;28;20627;-81
2021/12/13 05:56:28;;;;;;;7.72;6.63;;;5.30;99.90;;;;;;5082164;28;20290;-82
2021/12/13 05:58:57;;;;;;;13.50;7.60;;;5.30;99.90;;;;;;5082121;28;20298;-82
2021/12/13 06:01:28;;;;;;;11.10;7.30;;;5.30;99.90;;;;;;5082838;28;20227;-81
2021/12/13 06:04:10;;;;;;;13.65;8.50;;;5.30;99.90;;;;;;5082225;28;20606;-81
2021/12/13 06:06:51;;;;;;;8.82;7.45;;;5.30;99.90;;;;;;5072399;28;20203;-81
2021/12/13 06:09:42;;;;;;;10.10;7.18;;;5.40;99.90;;;;;;5080373;28;20263;-81
2021/12/13 06:12:15;;;;;;;8.52;7.38;;;5.40;99.90;;;;;;5075017;28;20215;-81
2021/12/13 06:14:43;;;;;;;10.20;7.38;;;5.50;99.90;;;;;;5074870;28;20283;-81
2021/12/13 06:17:17;;;;;;;13.88;8.00;;;5.40;99.90;;;;;;5080253;28;20281;-81
2021/12/13 06:19:55;;;;;;;13.07;8.60;;;5.40;99.90;;;;;;5081430;28;20253;-81
2021/12/13 06:22:25;;;;;;;12.65;7.57;;;5.40;99.90;;;;;;5077746;28;20226;-81
2021/12/13 06:24:56;;;;;;;11.18;7.10;;;5.40;99.90;;;;;;5081396;28;20281;-81
2021/12/13 06:27:26;;;;;;;9.93;7.93;;;5.20;99.90;;;;;;5078037;28;20608;-81
2021/12/13 06:29:59;;;;;;;12.55;7.10;;;5.40;99.90;;;;;;5077666;28;20319;-82
2021/12/13 06:32:37;;;;;;;9.27;7.78;;;5.40;99.90;;;;;;5074551;28;20210;-81
2021/12/13 06:35:32;;;;;;;12.52;7.70;;;5.40;99.90;;;;;;5078014;28;20239;-83
2021/12/13 06:37:59;;;;;;;15.27;8.75;;;;;;;;;;5083124;28;20203;-83
2021/12/13 06:40:29;;;;;;;11.85;8.40;;;5.10;99.90;;;;;;5085160;28;20286;-83
2021/12/13 06:42:59;;;;;;;7.80;6.72;;;5.40;99.90;;;;;;5082255;28;20216;-83
2021/12/13 06:45:30;;;;;;;14.05;9.25;;;5.40;99.90;;;;;;5076070;28;20273;-83
2021/12/13 06:48:00;;;;;;;9.90;6.70;;;5.40;99.90;;;;;;5079658;28;20268;-84
2021/12/13 06:50:31;;;;;;;13.45;8.82;;;5.40;99.90;;;;;;5080566;28;20588;-83
2021/12/13 06:53:14;;;;;;;13.45;9.05;;;4.80;99.90;;;;;;5082934;28;20256;-82
2021/12/13 06:55:41;;;;;;;16.17;8.82;;;;;;;;;;5080744;28;20203;-83
2021/12/13 06:58:19;;;;;;;14.95;8.90;;;5.40;99.90;;;;;;5077554;28;20310;-82
2021/12/13 07:00:48;;;;;;;10.50;8.27;;;5.10;99.90;;;;;;5081057;28;20662;-83
2021/12/13 07:03:21;;;;;;;12.38;8.68;;;5.70;99.90;;;;;;5081415;28;20235;-82
2021/12/13 07:05:50;;;;;;;11.95;9.15;;;5.50;99.90;;;;;;5081211;28;20214;-83
2021/12/13 07:08:20;;;;;;;10.85;8.25;;;5.40;99.90;;;;;;5080780;28;20204;-83
2021/12/13 07:10:57;;;;;;;18.40;9.35;;;4.80;99.90;;;;;;5073627;28;20200;-83
2021/12/13 07:13:30;;;;;;;12.77;9.05;;;5.50;99.90;;;;;;5076826;28;20743;-82
2021/12/13 07:16:00;;;;;;;14.18;8.50;;;5.10;99.90;;;;;;5078401;28;20653;-83
2021/12/13 07:18:38;;;;;;;11.65;8.93;;;5.80;99.90;;;;;;5080651;28;20554;-83
2021/12/13 07:21:08;;;;;;;11.52;9.07;;;5.40;99.90;;;;;;5079216;28;20228;-83
2021/12/13 07:24:00;;;;;;;16.00;8.40;;;5.40;99.90;;;;;;5080076;28;20199;-83
2021/12/13 07:26:38;;;;;;;13.23;9.52;;;5.50;99.90;;;;;;5083519;28;20281;-82
2021/12/13 07:29:11;;;;;;;11.45;8.50;;;5.50;99.90;;;;;;5080364;28;20318;-82
2021/12/13 07:31:40;;;;;;;13.80;9.13;;;5.50;99.90;;;;;;5075992;28;20285;-82
2021/12/13 07:34:14;;;;;;;16.95;8.82;;;5.40;99.90;;;;;;5078815;28;20223;-83
2021/12/13 07:36:42;;;;;;;12.27;8.50;;;;;;;;;;5082351;28;20206;-83
2021/12/13 07:39:14;;;;;;;9.95;7.90;;;5.50;99.90;;;;;;5081347;28;20277;-83
2021/12/13 07:41:46;;;;;;;11.82;8.27;;;6.10;99.90;;;;;;5069935;28;20260;-83
2021/12/13 07:44:33;;;;;;;13.05;9.20;;;5.50;99.90;;;;;;5078248;28;20727;-83
2021/12/13 07:47:02;;;;;;;12.77;9.30;;;5.50;99.90;;;;;;5077291;28;20252;-83
2021/12/13 07:49:32;;;;;;;11.77;8.73;;;5.50;99.90;;;;;;5081634;28;20246;-83
2021/12/13 07:52:00;;;;;;;17.80;9.50;;;;;;;;;;5078033;28;20199;-83
2021/12/13 07:54:28;;;;;;;16.83;10.00;;;;;;;;;;5080239;28;20657;-83
2021/12/13 07:56:58;;;;;;;22.35;11.23;;;5.60;99.90;;;;;;5079776;28;20684;-83
2021/12/13 07:59:30;;;;;;;16.38;10.98;;;5.60;99.90;;;;;;5080793;28;20203;-83
2021/12/13 08:02:02;;;;;;;16.48;9.98;;;5.60;99.90;;;;;;5081535;28;20200;-83
2021/12/13 08:04:33;;;;;;;16.92;10.77;;;5.60;99.90;;;;;;5080298;28;20194;-83
2021/12/13 08:07:14;;;;;;;15.02;9.98;;;5.60;99.90;;;;;;5079731;28;20207;-83
2021/12/13 08:09:45;;;;;;;16.88;10.27;;;5.60;99.90;;;;;;5078867;28;20227;-83
2021/12/13 08:12:18;;;;;;;15.38;10.13;;;5.00;99.90;;;;;;5082197;28;20653;-83
2021/12/13 08:14:49;;;;;;;16.25;10.30;;;5.80;99.90;;;;;;5075959;28;20215;-83
2021/12/13 08:17:19;;;;;;;12.65;9.80;;;5.70;99.90;;;;;;5081041;28;20285;-83
2021/12/13 08:19:53;;;;;;;17.08;10.57;;;5.70;99.90;;;;;;5079898;28;20283;-82
2021/12/13 08:22:21;;;;;;;18.63;9.70;;;5.80;99.90;;;;;;5077436;28;20198;-83
2021/12/13 08:24:51;;;;;;;11.68;9.63;;;5.80;99.90;;;;;;5079891;28;20251;-83
2021/12/13 08:27:25;;;;;;;15.18;9.15;;;5.80;99.90;;;;;;5080627;28;20230;-83
2021/12/13 08:30:07;;;;;;;14.38;10.63;;;5.90;99.90;;;;;;5081833;28;20282;-83
2021/12/13 08:32:34;;;;;;;17.42;11.55;;;5.80;99.90;;;;;;5075946;28;20199;-83
2021/12/13 08:35:04;;;;;;;16.88;10.82;;;4.60;99.90;;;;;;5073983;28;20203;-83
2021/12/13 08:37:33;;;;;;;18.25;10.98;;;5.90;99.90;;;;;;5077929;28;20212;-83
2021/12/13 08:40:04;;;;;;;16.90;11.15;;;6.00;99.90;;;;;;5080639;28;20234;-83
2021/12/13 08:42:36;;;;;;;21.83;11.40;;;6.10;99.90;;;;;;5086243;28;20206;-82
2021/12/13 08:45:09;;;;;;;17.20;11.20;;;6.00;99.90;;;;;;5083206;28;20234;-83
2021/12/13 08:47:42;;;;;;;13.80;11.23;;;6.10;99.90;;;;;;5080784;28;20287;-83
2021/12/13 08:50:15;;;;;;;19.80;14.30;;;6.30;99.90;;;;;;5084782;28;20215;-83
2021/12/13 08:52:45;;;;;;;28.85;11.48;;;6.30;99.90;;;;;;5082216;28;20203;-83
2021/12/13 08:55:23;;;;;;;19.63;11.88;;;6.30;99.90;;;;;;5077607;28;20284;-83
2021/12/13 08:57:55;;;;;;;19.13;11.93;;;6.20;99.90;;;;;;5084866;28;20229;-83
2021/12/13 09:00:47;;;;;;;16.83;11.93;;;6.20;99.90;;;;;;5084676;28;20230;-83
2021/12/13 09:03:37;;;;;;;17.17;11.60;;;6.30;99.90;;;;;;5080015;28;20210;-83
2021/12/13 09:06:23;;;;;;;20.27;13.35;;;6.40;99.90;;;;;;5073525;28;20219;-83
2021/12/13 09:08:54;;;;;;;16.42;11.60;;;6.10;99.90;;;;;;5073735;28;20280;-83
2021/12/13 09:11:27;;;;;;;18.13;12.38;;;6.20;99.90;;;;;;5079547;28;20264;-83
2021/12/13 09:13:58;;;;;;;21.17;13.18;;;6.30;99.90;;;;;;5075915;28;20208;-83
2021/12/13 09:16:38;;;;;;;19.38;11.65;;;6.30;99.90;;;;;;5082778;28;20259;-83
2021/12/13 09:19:12;;;;;;;19.27;11.82;;;6.20;99.90;;;;;;5084236;28;20683;-83
2021/12/13 09:21:49;;;;;;;15.65;11.00;;;6.30;99.90;;;;;;5082157;28;20215;-83
2021/12/13 09:24:23;;;;;;;22.00;11.50;;;;;;;;;;5084625;28;20204;-83
2021/12/13 09:26:50;;;;;;;17.52;11.23;;;;;;;;;;5083139;28;20674;-83
2021/12/13 09:29:18;;;;;;;15.02;10.80;;;6.40;99.90;;;;;;5082996;28;20250;-83
2021/12/13 09:31:52;;;;;;;15.40;8.80;;;6.40;99.90;;;;;;5081144;28;20212;-83
2021/12/13 09:34:22;;;;;;;15.50;10.80;;;6.40;99.90;;;;;;5079450;28;20640;-84
2021/12/13 09:36:52;;;;;;;17.42;12.10;;;6.50;99.90;;;;;;5080371;28;20687;-83
2021/12/13 09:39:24;;;;;;;16.45;10.18;;;6.60;99.90;;;;;;5080662;28;20262;-83
2021/12/13 09:41:57;;;;;;;13.93;9.38;;;6.60;99.90;;;;;;5080788;28;20238;-82
2021/12/13 09:44:31;;;;;;;10.00;9.00;;;6.60;99.90;;;;;;5083154;28;20203;-82
2021/12/13 09:47:08;;;;;;;14.35;8.98;;;6.50;99.90;;;;;;5079518;28;20633;-81
2021/12/13 09:49:40;;;;;;;13.57;9.13;;;6.70;99.90;;;;;;5081018;28;20237;-82
2021/12/13 09:52:10;;;;;;;8.30;7.43;;;6.60;99.90;;;;;;5081713;28;20632;-82
2021/12/13 09:54:40;;;;;;;12.07;8.93;;;6.90;99.90;;;;;;5079505;28;20657;-82
2021/12/13 09:57:11;;;;;;;9.90;8.47;;;7.00;99.90;;;;;;5081971;28;20666;-82
2021/12/13 09:59:42;;;;;;;13.27;8.43;;;6.90;99.90;;;;;;5081521;28;20617;-81
2021/12/13 10:02:14;;;;;;;10.67;7.63;;;6.90;99.90;;;;;;5082809;28;20635;-81
2021/12/13 10:04:44;;;;;;;11.67;8.50;;;7.00;99.90;;;;;;5080644;28;20629;-82
2021/12/13 10:07:15;;;;;;;12.70;8.33;;;7.00;99.90;;;;;;5079575;28;20675;-83
2021/12/13 10:09:46;;;;;;;12.57;8.07;;;7.10;99.90;;;;;;5070515;28;20657;-82
2021/12/13 10:12:17;;;;;;;11.27;7.40;;;7.00;99.90;;;;;;5070017;28;20645;-82
2021/12/13 10:14:47;;;;;;;10.57;7.40;;;7.80;99.90;;;;;;5070479;28;20641;-82
2021/12/13 10:17:18;;;;;;;12.70;7.63;;;7.30;99.90;;;;;;5070552;28;20622;-82
2021/12/13 10:19:48;;;;;;;11.13;8.30;;;7.30;99.90;;;;;;5070856;28;20621;-82
2021/12/13 10:22:20;;;;;;;16.50;9.53;;;7.40;99.90;;;;;;5074651;28;20621;-82
2021/12/13 10:24:50;;;;;;;10.07;7.77;;;7.40;99.90;;;;;;5082088;28;20665;-81
2021/12/13 10:27:19;;;;;;;11.30;8.43;;;7.50;99.90;;;;;;5079464;28;20654;-82
2021/12/13 10:29:50;;;;;;;10.20;6.70;;;7.50;99.90;;;;;;5080764;28;20652;-82
2021/12/13 10:32:23;;;;;;;8.60;7.00;;;7.50;99.90;;;;;;5081252;28;21028;-82
2021/12/13 10:34:53;;;;;;;12.57;8.20;;;7.50;99.90;;;;;;5078527;28;20721;-82
2021/12/13 10:37:22;;;;;;;8.97;7.90;;;7.60;99.90;;;;;;5080457;28;20682;-82
2021/12/13 10:39:55;;;;;;;9.43;5.93;;;8.00;99.90;;;;;;5081616;28;20680;-82
2021/12/13 10:42:25;;;;;;;9.77;5.87;;;7.60;99.90;;;;;;5079058;28;21236;-81
2021/12/13 10:44:53;;;;;;;6.57;5.97;;;7.60;99.90;;;;;;5081658;28;20625;-82
2021/12/13 10:47:26;;;;;;;10.00;6.90;;;7.60;99.90;;;;;;5080301;28;20709;-82
2021/12/13 10:49:55;;;;;;;9.70;6.10;;;7.70;99.90;;;;;;5077912;28;20784;-82
2021/12/13 10:52:25;;;;;;;8.60;5.70;;;7.70;99.90;;;;;;5077789;28;21030;-81
2021/12/13 10:54:58;;;;;;;7.53;6.43;;;7.80;99.90;;;;;;5078504;28;20756;-82
2021/12/13 10:57:28;;;;;;;5.90;5.40;;;7.80;99.90;;;;;;5078389;28;21047;-82
2021/12/13 10:59:57;;;;;;;6.67;4.40;;;7.90;99.90;;;;;;5080157;28;20682;-82
2021/12/13 11:02:29;;;;;;;5.13;4.63;;;7.90;99.90;;;;;;5081126;28;20682;-82
2021/12/13 11:05:01;;;;;;;4.70;4.30;;;7.90;99.90;;;;;;5080491;28;20628;-81
2021/12/13 11:07:29;;;;;;;5.00;4.47;;;7.90;99.90;;;;;;5078167;28;21031;-82
2021/12/13 11:09:58;;;;;;;5.63;4.93;;;8.00;99.90;;;;;;5079475;28;20713;-82
2021/12/13 11:12:31;;;;;;;8.80;5.70;;;7.90;99.90;;;;;;5080292;28;20667;-82
2021/12/13 11:15:02;;;;;;;6.07;5.20;;;7.90;99.90;;;;;;5069032;28;20603;-81
2021/12/13 11:17:34;;;;;;;7.50;5.50;;;8.00;99.90;;;;;;5069022;28;20687;-81
2021/12/13 11:20:08;;;;;;;6.83;5.30;;;7.90;99.90;;;;;;5069320;28;21014;-81
2021/12/13 11:22:36;;;;;;;8.17;5.93;;;;;;;;;;5077988;28;20625;-82
2021/12/13 11:25:12;;;;;;;7.53;6.33;;;8.00;99.90;;;;;;5078719;28;21576;-82
2021/12/13 11:27:40;;;;;;;9.60;6.70;;;7.90;99.90;;;;;;5080817;28;21028;-82
2021/12/13 11:30:10;;;;;;;8.43;5.60;;;8.10;99.90;;;;;;5077348;28;21145;-82
2021/12/13 11:33:25;;;;;;;5.93;4.87;;;8.20;99.90;;;;;;5078737;28;21092;-81
2021/12/13 11:36:37;;;;;;;4.03;3.33;;;8.20;99.90;;;;;;5018389;28;20644;-81
2021/12/13 11:39:26;;;;;;;3.90;3.10;;;8.50;99.90;;;;;;5017819;28;20752;-81
2021/12/13 11:42:20;;;;;;;2.67;2.40;;;6.00;99.90;;;;;;5072418;28;20673;-82
2021/12/13 11:45:38;;;;;;;3.20;2.70;;;8.50;99.90;;;;;;5078137;28;20719;-82
2021/12/13 11:48:31;;;;;;;4.17;3.20;;;7.70;99.90;;;;;;5079234;28;20621;-82
2021/12/13 11:51:35;;;;;;;4.33;3.20;;;8.50;99.90;;;;;;5078120;28;20673;-82
2021/12/13 11:54:39;;;;;;;7.40;5.70;;;8.10;99.90;;;;;;5055065;28;20676;-81
2021/12/13 11:57:43;;;;;;;6.23;4.90;;;8.40;99.90;;;;;;5078093;28;21016;-82
2021/12/13 12:00:25;;;;;;;4.37;3.97;;;8.50;99.90;;;;;;5078363;28;20724;-83
2021/12/13 12:03:27;;;;;;;5.20;4.70;;;8.60;99.90;;;;;;5085362;28;20648;-82
2021/12/13 12:06:37;;;;;;;5.47;4.13;;;8.60;99.90;;;;;;5078868;28;20691;-82
2021/12/13 12:09:39;;;;;;;3.80;3.50;;;8.60;99.90;;;;;;5077050;28;20649;-82
2021/12/13 12:12:29;;;;;;;5.60;4.10;;;8.70;99.90;;;;;;5075852;28;20760;-83
2021/12/13 12:15:00;;;;;;;5.17;4.20;;;;;;;;;;5076019;28;20629;-82
2021/12/13 12:17:28;;;;;;;6.83;4.43;;;8.60;99.90;;;;;;5078219;28;20648;-82
2021/12/13 12:19:57;;;;;;;16.83;4.37;;;;;;;;;;5079137;28;20670;-82
2021/12/13 12:22:24;;;;;;;6.50;4.63;;;;;;;;;;5081464;28;21197;-82
2021/12/13 12:24:55;;;;;;;5.67;4.20;;;8.70;99.90;;;;;;5077761;28;20631;-82
2021/12/13 12:27:25;;;;;;;9.40;4.97;;;8.70;99.90;;;;;;5080431;28;21026;-82
2021/12/13 12:29:54;;;;;;;6.13;4.80;;;8.80;99.90;;;;;;5076761;28;20682;-82
2021/12/13 12:32:27;;;;;;;7.40;4.80;;;8.70;99.90;;;;;;5079481;28;20672;-83
2021/12/13 12:34:57;;;;;;;4.23;3.83;;;8.70;99.90;;;;;;5074241;28;21206;-82
2021/12/13 12:37:56;;;;;;;5.73;4.07;;;8.70;99.90;;;;;;5078332;28;20678;-82
2021/12/13 12:40:31;;;;;;;4.40;3.80;;;8.80;99.90;;;;;;5079360;28;21259;-82
2021/12/13 12:43:00;;;;;;;4.50;4.10;;;8.70;99.90;;;;;;5078094;28;20625;-82
2021/12/13 12:45:31;;;;;;;5.80;4.57;;;8.50;99.90;;;;;;5080288;28;20629;-82
2021/12/13 12:48:15;;;;;;;3.93;3.53;;;8.70;99.90;;;;;;5080123;28;20625;-82
2021/12/13 12:51:02;;;;;;;4.47;3.83;;;8.70;99.90;;;;;;5070161;28;20715;-82
2021/12/13 12:53:40;;;;;;;4.03;3.70;;;8.70;99.90;;;;;;5084905;28;20644;-82
2021/12/13 12:56:11;;;;;;;4.73;4.23;;;8.80;99.90;;;;;;5090601;28;20652;-81
2021/12/13 12:58:45;;;;;;;5.00;4.50;;;8.70;99.90;;;;;;5081434;28;20731;-82
2021/12/13 13:01:17;;;;;;;6.93;5.20;;;8.80;99.90;;;;;;5084448;28;20628;-82
2021/12/13 13:03:44;;;;;;;5.80;4.70;;;;;;;;;;5075438;28;20725;-82
2021/12/13 13:06:14;;;;;;;9.93;6.17;;;8.70;99.90;;;;;;5085003;28;21190;-82
2021/12/13 13:08:44;;;;;;;5.23;4.73;;;8.30;99.90;;;;;;5082937;28;20682;-82
2021/12/13 13:11:29;;;;;;;8.13;5.53;;;8.60;99.90;;;;;;5082262;28;20648;-82
2021/12/13 13:14:00;;;;;;;6.93;5.70;;;8.70;99.90;;;;;;5086893;28;20631;-82
2021/12/13 13:16:30;;;;;;;6.77;5.33;;;8.60;99.90;;;;;;5082260;28;20648;-82
2021/12/13 13:18:58;;;;;;;8.00;5.87;;;;;;;;;;5083075;28;20621;-81
2021/12/13 13:21:25;;;;;;;8.20;7.00;;;;;;;;;;5086940;28;20740;-82
2021/12/13 13:23:56;;;;;;;10.93;6.77;;;8.90;99.90;;;;;;5086929;28;20673;-82
2021/12/13 13:26:28;;;;;;;9.50;6.10;;;8.60;99.90;;;;;;5083756;28;20675;-81
2021/12/13 13:28:59;;;;;;;10.20;7.10;;;8.70;99.90;;;;;;5083911;28;20625;-81
2021/12/13 13:31:31;;;;;;;11.93;7.97;;;8.60;99.90;;;;;;5078301;28;20666;-82
2021/12/13 13:34:00;;;;;;;10.53;9.07;;;8.70;99.90;;;;;;5081669;28;20628;-83